India Meteorological Department
Airport METARs
Date : 21-10-2018
Sl. # Airport METAR
1 Agartala VEAT 210930Z 00000KT 5000 HZ FEW020 31/20 Q1011 NOSIG=
2 Ahmedabad VAAH 210930Z 36007KT 8000 NSC 39/04 Q1013 NOSIG=
3 Amritsar VIAR 210930Z 30007KT 5000 HZ NSC 29/15 Q1015 NOSIG=
4 Aurangabad VAAU 210900Z 14004KT 6000 FEW020 35/16 Q1015 NOSIG=
5 Bangalore VOBL 210930Z 05004KT 010V100 9999 SCT015 SCT080 27/14 Q1016 NOSIG=
6 Baroda VABO 210900Z 02006KT 6000 NSC 36/19 Q1012 NOSIG=
7 Bhopal VABP 210900Z 25006KT 6000 FEW030 34/13 Q1015 NOSIG=
8 Bhubaneswar VEBS 210930Z 04001KT 5000 HZ FEW100 33/19 Q1011 NOSIG=
9 Bhuntar VIBR 210300Z 00000KT 6000 NSC 10/06 Q1024=
10 Chennai VOMM 210930Z 06008KT 5000 HZ SCT018 FEW025CB BKN080 31/24 Q1011 NOSIG=
11 Coimbatore VOCB 210930Z 01005KT 6000 FEW015 31/19 Q1012 NOSIG=
12 Colombo VCBI 210940Z 27008KT 220V310 9999 SCT016 FEW018CB 30/23 Q1009 NOSIG RMK S=
13 Delhi VIDP 210930Z 34007KT 3500 HZ FEW040 SCT100 31/12 Q1014 NOSIG=
14 Dehradun VIDN 210900Z 28004KT 6000 FEW030 29/15 Q1015 =
15 Gauhati VEGT 210930Z 01007KT 4000 HZ FEW020 SCT100 31/23 Q1011 NOSIG=
16 Gaya VEGY 210930Z 32010KT 5000 HZ NSC 33/17 Q1012 NOSIG=
17 Gaggal VIGG 210900Z 21005KT 6000 FEW040 27/11 Q1019=
18 Goa VOGO 210900Z 27011KT 6000 FEW100 33/21 Q1010 NOSIG=
19 Hyderabad VOHS 210930Z 10008KT 6000 SCT020 33/18 Q1015 NOSIG=
20 Imphal VEIM 210930Z 00000KT 6000 FEW018 SCT025 27/18 Q1013 NOSIG=
21 Indore VAID 210900Z 27002KT 5000 HZ FEW025 33/11 Q1016 NOSIG=
22 Jabalpur VAJB 210900Z 29006KT 5000 HZ FEW030 33/16 Q1014=
23 Jaipur VIJP 210930Z 05004KT 3000 HZ FEW035 32/09 Q1014 NOSIG=
24 Khajuraho VEKO 210900Z 32004KT 6000 NSC 36/16 Q1011=
25 Kochi VOCI 210930Z 27005KT 6000 HZ FEW015 FEW025TCU SCT080 32/24 Q1009 BECMG 5000 HZ=
26 Kolkata VECC 210930Z 02005KT 4000 HZ FEW020 33/21 Q1010 NOSIG=
27 Kozhikode VOCL 210930Z 27006KT 8000 FEW015 FEW025CB BKN090 31/25 Q1009 NOSIG=
28 Lucknow VILK 210930Z 34005KT 4000 HZ NSC 35/20 Q1012 NOSIG=
29 Ludhiana VILD 210600Z 36002KT 5000 HZ NSC 29/10 Q1017 =
30 Madurai VOMD 210930Z 36006KT 6000 FEW018 SCT100 33/22 Q1010 NOSIG=
31 Mohanbari VEMN 210930Z 01004KT 5000 HZ FEW025 31/22 Q1011 NOSIG=
32 Mumbai VABB 210930Z 29008KT 3000 HZ FEW020 32/26 Q1011 NOSIG=
33 Nagpur VANP 210930Z 00000KT 5000 HZ FEW025 35/16 Q1013 NOSIG=
34 Pantnagar VIPT 210730Z 32004KT 3500 HZ FEW030 BKN100 27/16 Q1015 =
35 Patna VEPT 210930Z 00000KT 4500 HZ FEW020 34/22 Q1010 NOSIG=
36 Raipur VERP 210900Z 25002KT 5000 HZ FEW025 34/18 Q1013 NOSIG=
37 Safdarjung VIDD 210930Z 32006KT 3500 HZ NSC 31/14 Q1014 NOSIG=
38 Shimla VISM 210600Z 27003KT 7000 NSC 21/03 Q1024=
39 Surat VASU 210930Z 06005KT 6000 FEW100 37/19 Q1011=
40 Ranchi VERC 210930Z 04004KT 5000 HZ NSC 30/10 Q1016 NOSIG=
41 Trichy VOTR 210930Z 03004KT 2100 -TSRA SCT015 FEW025CB BKN080 27/25 Q1010 TEMPO 1500 TSRA=
42 Trivandrum VOTV 210930Z 33010KT 6000 FEW015 FEW025CB 31/24 Q1008 NOSIG=
43 Udaipur VAUD 210930Z 30006KT 6000 NSC 34/01 Q1015 NOSIG =
44 Varanasi VEBN 210930Z 31004KT 6000 NSC 36/18 Q1011 NOSIG=
45 Vizag VOVZ 210900Z 11010KT 4500 HZ FEW018 34/25 Q1010 NOSIG =
46 Male VRMM 210900Z 26005KT 9999 SCT018TCU BKN300 31/24 Q1011 NOSIG=
47 Gan VRMG 210800Z 23005KT 9999 FEW017 FEW018CB SCT260 30/25 Q1012 CB SW TEMPO FEW018CB=
48 Kathmandu VNKT 210930Z NIL=
49 Dhaka VGHS 220000Z 12003KT 2200 BR NSC 25/23 Q1014 TEMPO S/VIS 1800M=
50 Colombo VCBI 210940Z 27008KT 220V310 9999 SCT016 FEW018CB 30/23 Q1009 NOSIG RMK S=
51 Karachi OPKC 210925Z 00000KT 7000 NSC 35/04 Q1014 NOSIG=
52 Lahore OPLA 210925Z 30006KT 6000 HZ NSC 30/13 Q1015 RMK QFE990 RMK A29.98=
53 Leh VILH 210930Z 23004KT 8000 SOCC FEW060 SCT070 11/-1 Q1027 NOSIG=
54 Sri Nagar VISR 210930Z 25007KT 6000 FEW025 FEW030CB 18/01 Q1023 TEMPO TS=
55 Jammu VIJU 210930Z 23004KT 6000 FEW025 29/10 Q1015=
56 Jodhpur VIJO 210930Z 01006KT 8000 SKC 32/00 Q1014 NOSIG=
57 Bhuj-Rudra VABJ 210930Z 04005KT 6000 SKC 38/00 Q1014 NOSIG=
58 Gorakhpur VEGK 210930Z 30005KT 6000 SKC 33/13 Q1011 NOSIG=
59 Allahabad VIAL 210930Z 05004KT 6000 SKC 35/16 Q1011 NOSIG=
60 Agra VIAG 210930Z 07004KT 6000 FEW100 33/11 Q1013 NOSIG=
61 Bagdogra VEBD 210930Z 14005KT 6000 SCT025 FEW030CB 29/21 Q1012 TEMPO TSRA=
62 Gwalior VIGR 210930Z 34006KT 6000 SCT030 33/15 Q1013 NOSIG=
63 Pune VAPO 210900Z 05008KT 6000 FEW025 34/12 Q1016 NOSIG=
64 Chandigarh VICG 210930Z 34008KT 6000 FEW030 30/07 Q1015 NOSIG=
65 Jamnagar VAJM 210930Z 35009KT 6000 SKC 37/06 Q1013 NOSIG=

 

--- End of List ---